Time;durP1;ratioP1;P1;durP2;ratioP2;P2;SDS_P1;SDS_P2;PMS_P1;PMS_P2;Temp;Humidity;BMP_temperature;BMP_pressure;BME280_temperature;BME280_humidity;BME280_pressure;Samples;Min_cycle;Max_cycle;Signal;HPM_P1;HPM_P2
2021/12/11 00:00:03;;;;;;;42.50;20.80;;;;;;;0.48;100.00;99509.56;6720362;26;34275;-69
2021/12/11 00:03:27;;;;;;;39.13;19.95;;;;;;;0.47;100.00;99515.72;6720666;26;34182;-69
2021/12/11 00:06:36;;;;;;;39.50;20.83;;;;;;;0.56;100.00;99515.78;6700584;26;34038;-69
2021/12/11 00:09:44;;;;;;;38.45;21.02;;;;;;;0.46;100.00;99529.72;6720285;26;34681;-69
2021/12/11 00:12:52;;;;;;;39.08;21.58;;;;;;;0.44;100.00;99535.03;6720328;26;34725;-69
2021/12/11 00:15:56;;;;;;;45.05;22.05;;;;;;;0.47;100.00;99533.97;6720584;26;34328;-69
2021/12/11 00:19:08;;;;;;;40.12;20.98;;;;;;;0.58;100.00;99533.94;6720353;26;34618;-69
2021/12/11 00:22:22;;;;;;;41.63;20.60;;;;;;;0.51;100.00;99538.00;6720680;26;34711;-69
2021/12/11 00:25:25;;;;;;;41.05;21.30;;;;;;;0.53;100.00;99541.31;6720491;26;34618;-69
2021/12/11 00:28:28;;;;;;;41.55;21.05;;;;;;;0.54;100.00;99551.63;6720281;26;33927;-69
2021/12/11 00:31:32;;;;;;;40.30;20.48;;;;;;;0.63;100.00;99552.66;6720280;26;34797;-70
2021/12/11 00:34:38;;;;;;;40.67;21.65;;;;;;;0.62;100.00;99554.44;6720301;26;34307;-69
2021/12/11 00:37:41;;;;;;;42.25;20.75;;;;;;;0.61;100.00;99563.22;6696600;26;34432;-69
2021/12/11 00:40:46;;;;;;;38.85;21.70;;;;;;;0.60;100.00;99558.94;6672292;26;34640;-69
2021/12/11 00:43:50;;;;;;;40.63;21.37;;;;;;;0.75;100.00;99570.75;6691978;26;33944;-69
2021/12/11 00:47:04;;;;;;;36.67;20.33;;;;;;;0.72;100.00;99578.84;6691664;26;34121;-70
2021/12/11 00:50:10;;;;;;;41.80;20.58;;;;;;;0.75;100.00;99590.81;6691893;26;33961;-69
2021/12/11 00:53:25;;;;;;;41.42;20.35;;;;;;;0.72;100.00;99594.50;6691822;26;34011;-69
2021/12/11 00:56:36;;;;;;;42.83;22.20;;;;;;;0.76;100.00;99595.91;6691906;26;33945;-70
2021/12/11 00:59:39;;;;;;;;;;;;;;;0.75;100.00;99606.47;6692223;26;34440;-70
2021/12/11 01:02:44;;;;;;;39.80;19.90;;;;;;;0.80;100.00;99612.16;6691901;26;34888;-70
2021/12/11 01:05:51;;;;;;;44.05;21.77;;;;;;;0.82;100.00;99621.50;6691788;26;34669;-70
2021/12/11 01:09:07;;;;;;;43.03;21.15;;;;;;;0.90;100.00;99620.06;6691723;26;34663;-70
2021/12/11 01:12:15;;;;;;;39.28;21.12;;;;;;;0.94;100.00;99624.09;6691825;26;34001;-70
2021/12/11 01:15:21;;;;;;;43.80;21.12;;;;;;;0.82;100.00;99625.94;6691752;26;34089;-70
2021/12/11 01:18:35;;;;;;;38.90;19.90;;;;;;;0.94;100.00;99627.53;6691689;26;34699;-70
2021/12/11 01:24:45;;;;;;;41.05;19.17;;;;;;;0.93;100.00;99625.84;6692169;26;34584;-70
2021/12/11 01:27:51;;;;;;;40.90;20.05;;;;;;;0.96;100.00;99630.03;6691515;26;34660;-69
2021/12/11 01:30:54;;;;;;;39.47;18.40;;;;;;;0.97;100.00;99627.25;6692096;26;34025;-69
2021/12/11 01:33:57;;;;;;;36.65;19.00;;;;;;;0.96;100.00;99623.00;6691640;26;34162;-69
2021/12/11 01:37:01;;;;;;;37.42;18.17;;;;;;;1.02;100.00;99625.09;6708582;26;34432;-69
2021/12/11 01:40:07;;;;;;;38.67;18.62;;;;;;;0.94;100.00;99624.09;6700920;26;33955;-70
2021/12/11 01:43:11;;;;;;;41.25;19.60;;;;;;;0.87;100.00;99613.31;6719880;26;34023;-70
2021/12/11 01:46:14;;;;;;;38.38;18.58;;;;;;;0.97;100.00;99623.84;6720136;26;34398;-70
2021/12/11 01:49:21;;;;;;;39.00;17.85;;;;;;;0.85;100.00;99618.66;6720406;26;34718;-70
2021/12/11 01:52:37;;;;;;;41.17;19.12;;;;;;;1.13;100.00;99635.50;6721500;26;33996;-70
2021/12/11 01:55:42;;;;;;;37.40;17.33;;;;;;;0.88;100.00;99628.00;6721339;26;34036;-69
2021/12/11 01:58:55;;;;;;;36.55;17.92;;;;;;;0.90;100.00;99636.56;6720917;26;34449;-70
2021/12/11 02:02:03;;;;;;;34.70;17.20;;;;;;;0.94;100.00;99645.81;6720965;26;34636;-70
2021/12/11 02:05:10;;;;;;;40.00;19.45;;;;;;;0.93;100.00;99638.91;6720828;26;34800;-70
2021/12/11 02:08:16;;;;;;;37.67;17.25;;;;;;;1.06;100.00;99631.75;6721263;26;33896;-70
2021/12/11 02:11:23;;;;;;;36.90;18.12;;;;;;;1.11;100.00;99632.22;6721053;26;34736;-69
2021/12/11 02:14:33;;;;;;;38.05;18.02;;;;;;;1.10;100.00;99632.31;6720971;26;33928;-70
2021/12/11 02:17:52;;;;;;;37.42;18.33;;;;;;;0.99;100.00;99627.97;6720931;26;34243;-70
2021/12/11 02:21:07;;;;;;;40.22;17.92;;;;;;;0.95;100.00;99644.03;6721030;26;34064;-70
2021/12/11 02:24:15;;;;;;;35.10;17.40;;;;;;;1.00;100.00;99639.25;6721059;26;34319;-70
2021/12/11 02:27:21;;;;;;;37.25;18.52;;;;;;;1.04;100.00;99631.03;6720755;26;34080;-70
2021/12/11 02:30:31;;;;;;;37.65;16.98;;;;;;;1.04;100.00;99628.44;6721298;26;33873;-70
2021/12/11 02:33:44;;;;;;;35.95;17.30;;;;;;;1.16;100.00;99624.78;6720817;26;34689;-69
2021/12/11 02:36:54;;;;;;;38.22;17.87;;;;;;;0.98;100.00;99625.47;6715151;26;142659;-70
2021/12/11 02:40:02;;;;;;;40.17;18.23;;;;;;;0.99;100.00;99630.59;6720973;26;33874;-70
2021/12/11 02:43:18;;;;;;;41.67;18.15;;;;;;;0.87;100.00;99618.56;6701210;26;34079;-70
2021/12/11 02:46:27;;;;;;;36.17;18.10;;;;;;;0.88;100.00;99613.19;6720891;26;33893;-70
2021/12/11 02:49:41;;;;;;;42.35;19.75;;;;;;;0.74;100.00;99610.88;6701243;26;33985;-69
2021/12/11 02:52:54;;;;;;;40.58;18.90;;;;;;;0.68;100.00;99613.13;6701170;26;34398;-69
2021/12/11 02:56:17;;;;;;;39.00;17.92;;;;;;;0.77;100.00;99612.41;6720779;26;34712;-70
2021/12/11 02:59:24;;;;;;;44.92;18.37;;;;;;;0.75;100.00;99609.09;6720653;26;33984;-70
2021/12/11 03:02:31;;;;;;;35.90;17.92;;;;;;;0.66;100.00;99609.84;6720782;26;33817;-69
2021/12/11 03:05:44;;;;;;;36.72;16.80;;;;;;;0.78;100.00;99612.28;6720805;26;34039;-69
2021/12/11 03:08:49;;;;;;;36.58;17.40;;;;;;;0.72;100.00;99609.34;6683678;26;34690;-70
2021/12/11 03:11:55;;;;;;;40.88;19.45;;;;;;;0.61;100.00;99596.31;6721028;26;34633;-69
2021/12/11 03:14:57;;;;;;;42.30;18.80;;;;;;;0.59;100.00;99595.59;6701172;26;34636;-69
2021/12/11 03:18:01;;;;;;;36.92;18.12;;;;;;;0.59;100.00;99593.00;6720525;26;34150;-69
2021/12/11 03:21:04;;;;;;;38.67;17.10;;;;;;;0.59;100.00;99599.03;6720679;26;34073;-70
2021/12/11 03:24:08;;;;;;;35.42;17.75;;;;;;;0.57;100.00;99618.41;6720708;26;34299;-69
2021/12/11 03:27:11;;;;;;;42.75;18.55;;;;;;;0.55;100.00;99615.91;6720431;26;34069;-69
2021/12/11 03:30:21;;;;;;;45.17;20.05;;;;;;;0.58;100.00;99635.72;6720948;26;34506;-70
2021/12/11 03:33:31;;;;;;;43.22;18.98;;;;;;;0.57;100.00;99632.28;6721033;26;33918;-70
2021/12/11 03:36:35;;;;;;;42.13;19.37;;;;;;;0.60;100.00;99641.63;6720498;26;34342;-69
2021/12/11 03:39:42;;;;;;;41.55;19.45;;;;;;;0.59;100.00;99650.41;6720384;26;34260;-70
2021/12/11 03:42:48;;;;;;;41.63;20.15;;;;;;;0.63;100.00;99657.06;6720540;26;34088;-70
2021/12/11 03:45:54;;;;;;;40.70;20.35;;;;;;;0.76;100.00;99676.00;6720642;26;34634;-70
2021/12/11 03:49:01;;;;;;;41.88;19.52;;;;;;;0.69;100.00;99675.66;6700789;26;34531;-69
2021/12/11 03:52:07;;;;;;;37.17;18.62;;;;;;;0.67;100.00;99666.31;6720514;26;34039;-70
2021/12/11 03:55:13;;;;;;;36.20;17.48;;;;;;;0.68;100.00;99678.38;6720605;26;34199;-70
2021/12/11 03:58:17;;;;;;;40.53;17.92;;;;;;;0.69;100.00;99680.06;6720498;26;34740;-70
2021/12/11 04:01:30;;;;;;;39.08;18.95;;;;;;;0.69;100.00;99680.87;6720679;26;33917;-70
2021/12/11 04:04:41;;;;;;;;;;;;;;;0.67;100.00;99677.59;6701678;26;34753;-69
2021/12/11 04:07:50;;;;;;;39.88;19.12;;;;;;;0.67;100.00;99671.53;6720626;26;34855;-70
2021/12/11 04:10:55;;;;;;;35.15;17.80;;;;;;;0.67;100.00;99661.09;6720492;26;34160;-69
2021/12/11 04:14:03;;;;;;;36.92;18.02;;;;;;;0.58;100.00;99670.47;6720197;26;33948;-70
2021/12/11 04:17:09;;;;;;;32.55;16.75;;;;;;;0.57;100.00;99668.81;6720364;26;34351;-70
2021/12/11 04:20:15;;;;;;;27.98;13.88;;;;;;;0.68;100.00;99671.38;6720422;26;34208;-70
2021/12/11 04:23:20;;;;;;;30.10;13.55;;;;;;;0.69;100.00;99675.66;6701215;26;33969;-70
2021/12/11 04:26:23;;;;;;;23.48;11.63;;;;;;;0.68;100.00;99686.22;6720367;26;34024;-70
2021/12/11 04:29:28;;;;;;;27.05;12.80;;;;;;;0.75;100.00;99676.97;6720430;26;33980;-70
2021/12/11 04:32:33;;;;;;;24.65;12.23;;;;;;;0.70;100.00;99679.94;6720780;26;33887;-70
2021/12/11 04:35:38;;;;;;;32.85;14.13;;;;;;;0.64;100.00;99676.97;6720245;26;34689;-70
2021/12/11 04:38:42;;;;;;;34.50;15.70;;;;;;;0.55;100.00;99682.94;6720235;26;34477;-69
2021/12/11 04:42:01;;;;;;;33.53;16.60;;;;;;;0.51;100.00;99666.69;6719931;26;35066;-69
2021/12/11 04:45:06;;;;;;;32.10;16.80;;;;;;;0.47;100.00;99670.50;6720276;26;35281;-70
2021/12/11 04:51:59;;;;;;;31.50;17.10;;;;;;;0.56;100.00;99680.22;6720025;26;34624;-70
2021/12/11 05:11:49;;;;;;;33.22;16.40;;;;;;;0.63;100.00;99701.44;6720156;26;34047;-70
2021/12/11 05:14:52;;;;;;;34.45;16.50;;;;;;;0.69;100.00;99719.22;6719771;26;34851;-70
2021/12/11 05:17:56;;;;;;;31.35;14.05;;;;;;;0.63;100.00;99714.50;6720067;26;35316;-69
2021/12/11 05:21:07;;;;;;;29.95;14.80;;;;;;;0.74;100.00;99728.34;6700329;26;34066;-69
2021/12/11 05:24:10;;;;;;;31.30;14.87;;;;;;;0.64;100.00;99731.78;6719697;26;35168;-70
2021/12/11 05:27:13;;;;;;;32.88;16.33;;;;;;;0.60;100.00;99725.16;6720003;26;35321;-70
2021/12/11 05:30:23;;;;;;;29.65;13.98;;;;;;;0.56;100.00;99719.34;6720077;26;34118;-69
2021/12/11 05:33:26;;;;;;;32.33;14.95;;;;;;;0.68;100.00;99723.59;6719948;26;34012;-70
2021/12/11 05:36:31;;;;;;;31.42;14.10;;;;;;;0.69;100.00;99719.22;6719973;26;33854;-70
2021/12/11 05:39:35;;;;;;;29.60;14.05;;;;;;;0.53;100.00;99724.81;6719956;26;34183;-70
2021/12/11 05:42:37;;;;;;;27.27;12.15;;;;;;;0.56;100.00;99729.78;6719748;26;34445;-70
2021/12/11 05:45:41;;;;;;;28.55;13.80;;;;;;;0.60;100.00;99730.38;6720124;26;34235;-70
2021/12/11 05:48:46;;;;;;;30.92;14.13;;;;;;;0.48;100.00;99733.97;6719718;26;34444;-69
2021/12/11 05:51:51;;;;;;;33.85;14.93;;;;;;;0.46;100.00;99736.69;6700436;26;34088;-69
2021/12/11 05:54:57;;;;;;;27.60;12.98;;;;;;;0.60;100.00;99739.03;6719656;26;34115;-70
2021/12/11 05:58:09;;;;;;;27.67;14.07;;;;;;;0.58;100.00;99748.75;6699944;26;34029;-69
2021/12/11 06:01:29;;;;;;;34.13;16.65;;;;;;;0.50;100.00;99758.13;6719667;26;34585;-70
2021/12/11 06:04:35;;;;;;;32.30;15.85;;;;;;;0.46;100.00;99757.56;6719703;26;33875;-70
2021/12/11 06:07:42;;;;;;;39.42;19.12;;;;;;;0.44;100.00;99773.31;6719922;26;33987;-70
2021/12/11 06:10:45;;;;;;;34.15;15.68;;;;;;;0.43;100.00;99776.06;6719499;26;34114;-70
2021/12/11 06:13:48;;;;;;;28.83;13.60;;;;;;;0.49;100.00;99772.97;6700160;26;33928;-69
2021/12/11 06:16:54;;;;;;;26.62;12.95;;;;;;;0.62;100.00;99778.91;6719403;26;34547;-69
2021/12/11 06:19:58;;;;;;;29.00;15.35;;;;;;;0.63;100.00;99790.19;6719938;26;34617;-69
2021/12/11 06:23:00;;;;;;;32.45;15.82;;;;;;;0.56;100.00;99802.87;6719875;26;35180;-70
2021/12/11 06:26:04;;;;;;;30.25;14.65;;;;;;;0.58;100.00;99816.63;6699739;26;35367;-69
2021/12/11 06:29:07;;;;;;;34.80;15.43;;;;;;;0.51;100.00;99820.66;6719223;26;34006;-70
2021/12/11 06:32:10;;;;;;;35.47;16.12;;;;;;;0.52;100.00;99831.94;6700071;26;34001;-69
2021/12/11 06:35:41;;;;;;;29.75;13.85;;;;;;;0.55;100.00;99844.75;6719639;26;34435;-70
2021/12/11 06:38:46;;;;;;;32.20;15.48;;;;;;;0.50;100.00;99845.09;6720339;26;35200;-70
2021/12/11 06:41:51;;;;;;;34.85;15.75;;;;;;;0.56;100.00;99855.06;6720425;26;35277;-70
2021/12/11 06:44:54;;;;;;;30.58;15.75;;;;;;;0.61;100.00;99873.81;6720715;26;34929;-70
2021/12/11 06:47:57;;;;;;;31.67;15.20;;;;;;;0.58;100.00;99870.63;6720484;26;35459;-70
2021/12/11 06:51:01;;;;;;;27.60;13.68;;;;;;;0.78;100.00;99862.91;6721202;26;35213;-69
2021/12/11 06:54:08;;;;;;;27.60;13.00;;;;;;;0.75;100.00;99876.22;6720285;26;34306;-70
2021/12/11 06:57:11;;;;;;;24.00;12.15;;;;;;;0.77;100.00;99878.72;6720692;26;34622;-69
2021/12/11 07:00:16;;;;;;;21.35;10.63;;;;;;;0.71;100.00;99879.16;6720658;26;34630;-70
2021/12/11 07:03:19;;;;;;;22.13;10.75;;;;;;;0.68;100.00;99892.44;6720670;26;34453;-69
2021/12/11 07:06:23;;;;;;;21.50;10.65;;;;;;;0.75;100.00;99899.69;6720657;26;34057;-70
2021/12/11 07:09:27;;;;;;;20.50;10.73;;;;;;;0.77;100.00;99905.66;6720607;26;34000;-70
2021/12/11 07:12:30;;;;;;;23.00;10.63;;;;;;;0.79;100.00;99910.72;6720657;26;34666;-69
2021/12/11 07:15:32;;;;;;;20.20;10.48;;;;;;;0.74;100.00;99925.91;6720674;26;34038;-70
2021/12/11 07:18:36;;;;;;;17.85;9.18;;;;;;;0.86;100.00;99930.22;6720495;26;34858;-70
2021/12/11 07:21:39;;;;;;;19.52;9.55;;;;;;;0.95;100.00;99945.19;6720617;26;34112;-69
2021/12/11 07:24:47;;;;;;;19.60;9.50;;;;;;;0.90;100.00;99951.69;6720596;26;34512;-70
2021/12/11 07:27:50;;;;;;;17.52;8.90;;;;;;;0.88;100.00;99962.25;6720734;26;34601;-69
2021/12/11 07:30:55;;;;;;;18.98;9.52;;;;;;;0.91;100.00;99971.66;6720339;26;33953;-70
2021/12/11 07:33:58;;;;;;;18.25;8.75;;;;;;;0.83;100.00;99973.03;6720718;26;34739;-70
2021/12/11 07:37:02;;;;;;;19.80;9.95;;;;;;;0.75;100.00;99982.41;6720260;26;33999;-70
2021/12/11 07:40:08;;;;;;;18.00;9.43;;;;;;;0.80;100.00;99985.50;6720527;26;34191;-70
2021/12/11 07:43:12;;;;;;;20.40;9.75;;;;;;;1.02;100.00;99989.94;6720362;26;34025;-70
2021/12/11 07:46:19;;;;;;;16.10;7.80;;;;;;;1.03;100.00;99989.81;6720643;26;33920;-70
2021/12/11 07:49:22;;;;;;;19.23;8.60;;;;;;;1.15;100.00;99999.34;6720123;26;34773;-69
2021/12/11 07:52:25;;;;;;;13.52;6.45;;;;;;;1.18;100.00;100001.72;6720487;26;33955;-70
2021/12/11 07:55:28;;;;;;;15.57;7.60;;;;;;;1.24;100.00;99998.63;6720255;26;34379;-70
2021/12/11 07:58:32;;;;;;;14.65;7.72;;;;;;;1.20;100.00;99991.16;6720456;26;34325;-69
2021/12/11 08:01:38;;;;;;;14.90;7.05;;;;;;;0.87;100.00;99984.91;6720289;26;34658;-70
2021/12/11 08:04:41;;;;;;;13.98;7.55;;;;;;;0.95;100.00;99989.56;6720365;26;34127;-70
2021/12/11 08:07:44;;;;;;;15.75;7.62;;;;;;;0.98;100.00;99989.34;6720833;26;34004;-70
2021/12/11 08:10:52;;;;;;;16.08;7.93;;;;;;;1.09;100.00;99986.75;6682151;26;35386;-70
2021/12/11 08:13:58;;;;;;;15.07;7.35;;;;;;;1.23;100.00;99993.53;6720352;26;33976;-70
2021/12/11 08:17:04;;;;;;;15.65;7.78;;;;;;;1.25;100.00;99994.25;6720479;26;32652;-69
2021/12/11 08:20:10;;;;;;;17.42;8.00;;;;;;;1.24;100.00;99995.19;6720263;26;34940;-69
2021/12/11 08:23:16;;;;;;;14.43;7.32;;;;;;;1.09;100.00;100001.59;6720607;26;33935;-70
2021/12/11 08:26:20;;;;;;;13.57;7.53;;;;;;;1.32;100.00;100008.50;6720528;26;34028;-70
2021/12/11 08:29:23;;;;;;;13.70;6.82;;;;;;;1.25;100.00;100002.91;6720310;26;35309;-70
2021/12/11 08:32:26;;;;;;;14.48;7.68;;;;;;;1.31;100.00;100012.03;6720382;26;34717;-70
2021/12/11 08:35:30;;;;;;;14.63;7.55;;;;;;;1.13;100.00;100008.22;6719836;26;35439;-70
2021/12/11 08:38:33;;;;;;;13.27;6.37;;;;;;;1.16;100.00;100018.47;6720398;26;34100;-69
2021/12/11 08:41:37;;;;;;;17.62;8.00;;;;;;;1.25;100.00;100012.53;6720083;26;33973;-69
2021/12/11 08:44:58;;;;;;;13.00;6.78;;;;;;;1.19;100.00;100023.44;6720246;26;34380;-70
2021/12/11 08:48:09;;;;;;;10.13;5.95;;;;;;;1.14;100.00;100029.03;6701369;26;32961;-69
2021/12/11 08:51:18;;;;;;;12.73;6.57;;;;;;;1.38;100.00;100021.09;6701056;26;34118;-70
2021/12/11 08:54:27;;;;;;;10.02;5.43;;;;;;;1.33;100.00;100031.06;6720178;26;34125;-70
2021/12/11 08:57:36;;;;;;;10.60;6.18;;;;;;;1.27;100.00;100034.13;6700038;26;34033;-69
2021/12/11 09:00:39;;;;;;;10.27;5.35;;;;;;;1.31;100.00;100025.94;6719815;26;33920;-69
2021/12/11 09:03:52;;;;;;;11.10;6.10;;;;;;;1.26;100.00;100022.00;6719870;26;34039;-70
2021/12/11 09:07:18;;;;;;;10.85;5.47;;;;;;;1.40;100.00;100040.13;6700245;26;34821;-69
2021/12/11 09:10:50;;;;;;;12.75;6.00;;;;;;;1.22;100.00;100044.94;6700037;26;34916;-70
2021/12/11 09:13:57;;;;;;;10.88;5.93;;;;;;;1.27;100.00;100040.19;6716382;26;34494;-69
2021/12/11 09:17:02;;;;;;;11.15;5.65;;;;;;;1.28;100.00;100043.66;6719912;26;34694;-69
2021/12/11 09:20:28;;;;;;;9.40;5.47;;;;;;;1.25;100.00;100039.50;6719957;26;35302;-69
2021/12/11 09:24:09;;;;;;;10.02;5.15;;;;;;;1.23;100.00;100049.22;6719886;26;34829;-69
2021/12/11 09:27:18;;;;;;;11.27;5.50;;;;;;;1.21;100.00;100056.34;6701163;26;33801;-69
2021/12/11 09:30:59;;;;;;;11.38;6.22;;;;;;;1.31;100.00;100054.69;6719855;26;34055;-70
2021/12/11 09:34:19;;;;;;;11.20;6.00;;;;;;;1.33;100.00;100058.97;6693100;26;34797;-70
2021/12/11 09:37:23;;;;;;;10.82;5.65;;;;;;;1.22;100.00;100059.78;6719516;26;34474;-69
2021/12/11 09:40:39;;;;;;;11.77;6.35;;;;;;;1.22;100.00;100060.63;6719215;26;33987;-70
2021/12/11 09:43:46;;;;;;;12.25;6.70;;;;;;;1.23;100.00;100069.28;6719305;26;34427;-69
2021/12/11 09:47:04;;;;;;;11.95;6.07;;;;;;;1.19;100.00;100086.16;6700058;26;35289;-69
2021/12/11 09:50:13;;;;;;;12.25;6.57;;;;;;;1.15;100.00;100087.34;6699765;26;33955;-70
2021/12/11 09:53:22;;;;;;;11.25;6.35;;;;;;;1.13;100.00;100084.00;6719470;26;34104;-69
2021/12/11 09:56:36;;;;;;;12.30;6.70;;;;;;;1.20;100.00;100087.81;6719529;26;34197;-69
2021/12/11 09:59:39;;;;;;;12.23;6.60;;;;;;;1.17;100.00;100083.66;6719485;26;34050;-69
2021/12/11 10:02:43;;;;;;;11.32;6.53;;;;;;;1.25;100.00;100088.31;6719555;26;34168;-70
2021/12/11 10:05:56;;;;;;;12.80;5.90;;;;;;;1.31;100.00;100083.44;6719983;26;34125;-69
2021/12/11 10:09:17;;;;;;;14.15;7.43;;;;;;;1.39;100.00;100080.25;6719858;26;34569;-69
2021/12/11 10:12:33;;;;;;;14.40;7.18;;;;;;;1.33;100.00;100067.66;6701100;26;33973;-69
2021/12/11 10:15:38;;;;;;;12.75;7.85;;;;;;;1.43;100.00;100066.00;6720661;26;34060;-70
2021/12/11 10:18:41;;;;;;;14.40;8.20;;;;;;;1.42;100.00;100058.25;6720785;26;34084;-69
2021/12/11 10:21:55;;;;;;;14.10;7.57;;;;;;;1.41;100.00;100065.28;6720589;26;33567;-69
2021/12/11 10:24:59;;;;;;;16.12;7.82;;;;;;;1.40;100.00;100063.63;6720657;26;34787;-70
2021/12/11 10:28:05;;;;;;;14.60;7.32;;;;;;;1.37;100.00;100056.00;6700599;26;35007;-69
2021/12/11 10:31:16;;;;;;;16.02;7.80;;;;;;;1.43;100.00;100067.78;6720622;26;34008;-69
2021/12/11 10:34:23;;;;;;;15.93;7.87;;;;;;;1.40;100.00;100070.63;6720548;26;34054;-69
2021/12/11 10:37:35;;;;;;;14.07;7.60;;;;;;;1.61;100.00;100069.81;6720309;26;34680;-69
2021/12/11 10:40:42;;;;;;;12.15;6.82;;;;;;;1.58;100.00;100080.50;6720242;26;34302;-69
2021/12/11 10:43:54;;;;;;;13.07;6.62;;;;;;;1.34;100.00;100084.16;6720450;26;34341;-69
2021/12/11 10:47:10;;;;;;;12.48;6.70;;;;;;;1.43;100.00;100084.31;6720390;26;34699;-69
2021/12/11 10:50:36;;;;;;;11.50;6.10;;;;;;;1.33;100.00;100078.09;6720468;26;34044;-69
2021/12/11 10:53:42;;;;;;;12.57;6.62;;;;;;;1.54;100.00;100073.03;6667102;26;34000;-69
2021/12/11 10:56:47;;;;;;;14.05;6.25;;;;;;;1.53;100.00;100085.25;6720361;26;34004;-69
2021/12/11 10:59:58;;;;;;;13.45;6.75;;;;;;;1.39;100.00;100085.47;6720116;26;34813;-69
2021/12/11 11:03:02;;;;;;;12.73;7.00;;;;;;;1.49;100.00;100076.00;6720232;26;34301;-69
2021/12/11 11:06:06;;;;;;;12.13;6.18;;;;;;;1.69;100.00;100064.00;6720468;26;35167;-70
2021/12/11 11:09:09;;;;;;;12.30;6.80;;;;;;;1.65;100.00;100070.41;6720896;26;34591;-69
2021/12/11 11:12:15;;;;;;;13.25;7.43;;;;;;;1.63;100.00;100060.06;6720350;26;34583;-70
2021/12/11 11:15:21;;;;;;;10.18;6.28;;;;;;;1.81;100.00;100056.97;6720361;26;33628;-69
2021/12/11 11:18:25;;;;;;;15.23;7.18;;;;;;;1.66;100.00;100061.59;6720300;26;34475;-69
2021/12/11 11:21:33;;;;;;;11.18;6.65;;;;;;;1.61;100.00;100059.34;6720252;26;35207;-69
2021/12/11 11:24:42;;;;;;;13.10;6.82;;;;;;;1.73;100.00;100047.94;6720471;26;34066;-69
2021/12/11 11:27:52;;;;;;;11.77;6.87;;;;;;;1.62;100.00;100055.78;6720331;26;34616;-70
2021/12/11 11:31:00;;;;;;;13.43;6.97;;;;;;;1.69;100.00;100037.84;6720314;26;34517;-69
2021/12/11 11:34:06;;;;;;;11.75;7.03;;;;;;;1.64;100.00;100047.84;6720267;26;34685;-69
2021/12/11 11:37:16;;;;;;;14.43;7.35;;;;;;;1.65;100.00;100033.78;6720803;26;34727;-69
2021/12/11 11:40:24;;;;;;;13.48;6.87;;;;;;;1.68;100.00;100036.19;6720099;26;34948;-69
2021/12/11 11:43:26;;;;;;;15.55;8.18;;;;;;;1.66;100.00;100041.53;6720464;26;34069;-69
2021/12/11 11:46:30;;;;;;;17.37;7.30;;;;;;;1.64;100.00;100053.06;6720259;26;34106;-69
2021/12/11 11:49:34;;;;;;;14.57;7.22;;;;;;;1.91;100.00;100050.91;6700738;26;33933;-69
2021/12/11 11:52:38;;;;;;;16.30;7.57;;;;;;;1.86;100.00;100054.81;6720663;26;34343;-69
2021/12/11 11:55:45;;;;;;;14.02;7.80;;;;;;;1.80;100.00;100063.97;6700563;26;33907;-69
2021/12/11 11:58:49;;;;;;;14.68;8.18;;;;;;;1.63;100.00;100074.94;6720405;26;33951;-69
2021/12/11 12:02:00;;;;;;;15.07;8.00;;;;;;;1.59;100.00;100083.97;6720221;26;34205;-70
2021/12/11 12:05:05;;;;;;;12.80;8.32;;;;;;;1.57;100.00;100088.47;6720223;26;34021;-69
2021/12/11 12:08:10;;;;;;;16.98;9.45;;;;;;;1.56;100.00;100082.41;6720296;26;34374;-69
2021/12/11 12:11:13;;;;;;;19.40;9.15;;;;;;;1.59;100.00;100079.56;6720466;26;34040;-69
2021/12/11 12:14:20;;;;;;;20.10;10.23;;;;;;;1.58;100.00;100090.12;6700629;26;34445;-69
2021/12/11 12:17:30;;;;;;;20.48;10.32;;;;;;;1.55;100.00;100090.38;6720402;26;34625;-69
2021/12/11 12:20:33;;;;;;;22.05;11.63;;;;;;;1.60;100.00;100091.66;6720417;26;33976;-69
2021/12/11 12:23:36;;;;;;;20.30;10.65;;;;;;;1.65;100.00;100105.22;6701045;26;33978;-69
2021/12/11 12:26:39;;;;;;;21.30;11.88;;;;;;;1.59;100.00;100116.16;6720252;26;34040;-69
2021/12/11 12:29:44;;;;;;;23.73;11.60;;;;;;;1.63;100.00;100122.81;6720261;26;34009;-69
2021/12/11 12:32:50;;;;;;;22.45;11.43;;;;;;;1.66;100.00;100112.13;6719690;26;34892;-69
2021/12/11 12:35:52;;;;;;;21.23;11.27;;;;;;;1.61;100.00;100108.19;6719858;26;33998;-69
2021/12/11 12:38:56;;;;;;;22.92;10.68;;;;;;;1.81;100.00;100110.09;6720838;26;34051;-69
2021/12/11 12:42:15;;;;;;;20.83;9.90;;;;;;;1.75;100.00;100106.19;6720026;26;34293;-70
2021/12/11 12:45:30;;;;;;;23.40;11.05;;;;;;;1.69;100.00;100106.66;6719681;26;34140;-69
2021/12/11 12:48:33;;;;;;;23.45;11.18;;;;;;;1.80;100.00;100110.22;6720235;26;35036;-70
2021/12/11 12:51:36;;;;;;;26.00;12.05;;;;;;;1.78;100.00;100099.06;6719895;26;33704;-69
2021/12/11 12:54:39;;;;;;;23.85;12.82;;;;;;;1.90;100.00;100096.31;6720118;26;34334;-69
2021/12/11 12:57:44;;;;;;;24.35;12.35;;;;;;;1.79;100.00;100095.50;6700598;26;35266;-69
2021/12/11 13:00:56;;;;;;;23.60;11.30;;;;;;;1.80;100.00;100100.59;6720520;26;34633;-69
2021/12/11 13:04:02;;;;;;;23.27;11.27;;;;;;;1.85;100.00;100097.63;6719917;26;34098;-69
2021/12/11 13:07:11;;;;;;;22.02;10.45;;;;;;;1.72;100.00;100090.75;6720188;26;34063;-69
2021/12/11 13:10:21;;;;;;;24.52;11.40;;;;;;;1.54;100.00;100094.78;6720293;26;34783;-69
2021/12/11 13:13:25;;;;;;;22.87;11.10;;;;;;;1.71;100.00;100086.44;6719970;26;34166;-69
2021/12/11 13:16:33;;;;;;;22.67;10.90;;;;;;;1.69;100.00;100083.09;6700205;26;33925;-69
2021/12/11 13:19:42;;;;;;;23.77;10.82;;;;;;;1.82;100.00;100087.41;6719816;26;34060;-69
2021/12/11 13:22:47;;;;;;;28.12;10.68;;;;;;;1.66;100.00;100090.38;6720558;26;34572;-69
2021/12/11 13:25:59;;;;;;;21.90;11.00;;;;;;;1.73;100.00;100083.72;6719574;26;34100;-69
2021/12/11 13:29:07;;;;;;;23.17;11.63;;;;;;;1.63;100.00;100091.44;6700225;26;34722;-69
2021/12/11 13:32:17;;;;;;;24.75;11.55;;;;;;;1.66;100.00;100096.44;6720200;26;34629;-69
2021/12/11 13:35:23;;;;;;;26.77;12.32;;;;;;;1.80;100.00;100100.59;6719672;26;34808;-69
2021/12/11 13:38:28;;;;;;;25.37;12.00;;;;;;;1.61;100.00;100098.56;6719684;26;34074;-69
2021/12/11 13:41:37;;;;;;;25.90;12.73;;;;;;;1.65;100.00;100105.22;6720012;26;34191;-69
2021/12/11 13:44:52;;;;;;;27.92;12.85;;;;;;;1.67;100.00;100105.94;6702150;26;33997;-69
2021/12/11 13:47:56;;;;;;;26.77;12.57;;;;;;;1.70;100.00;100110.94;6721053;26;34468;-69
2021/12/11 13:51:08;;;;;;;26.10;13.00;;;;;;;1.64;100.00;100121.87;6720839;26;34683;-69
2021/12/11 13:54:14;;;;;;;25.73;12.20;;;;;;;1.65;100.00;100133.16;6720878;26;34072;-69
2021/12/11 13:57:24;;;;;;;30.52;13.57;;;;;;;1.70;100.00;100131.84;6720786;26;35319;-69
2021/12/11 14:00:34;;;;;;;31.03;14.43;;;;;;;1.65;100.00;100122.69;6720924;26;34329;-69
2021/12/11 14:03:45;;;;;;;31.83;14.10;;;;;;;1.86;100.00;100130.69;6720984;26;34688;-69
2021/12/11 14:06:58;;;;;;;29.85;14.30;;;;;;;1.84;100.00;100109.84;6720749;26;35498;-69
2021/12/11 14:10:27;;;;;;;28.50;14.63;;;;;;;1.83;100.00;100112.63;6720632;26;34385;-69
2021/12/11 14:13:31;;;;;;;29.48;13.95;;;;;;;1.73;100.00;100110.72;6720806;26;34006;-68
2021/12/11 14:16:34;;;;;;;32.63;13.93;;;;;;;1.81;100.00;100107.50;6720918;26;34066;-68
2021/12/11 14:19:37;;;;;;;29.30;13.55;;;;;;;1.72;100.00;100113.44;6720807;26;34505;-68
2021/12/11 14:22:41;;;;;;;29.95;14.60;;;;;;;1.77;100.00;100128.78;6720903;26;34019;-69
2021/12/11 14:25:46;;;;;;;28.45;12.85;;;;;;;1.71;100.00;100123.06;6720553;26;34129;-69
2021/12/11 14:28:55;;;;;;;29.33;12.82;;;;;;;1.68;100.00;100141.63;6720656;26;34103;-68
2021/12/11 14:31:58;;;;;;;27.58;13.60;;;;;;;1.75;100.00;100147.19;6720273;26;34790;-69
2021/12/11 14:35:04;;;;;;;26.65;12.40;;;;;;;1.72;100.00;100150.88;6720544;26;35222;-69
2021/12/11 14:38:18;;;;;;;24.55;11.12;;;;;;;1.79;100.00;100159.09;6720334;26;34867;-68
2021/12/11 14:41:21;;;;;;;26.55;11.52;;;;;;;1.80;100.00;100162.53;6720769;26;34047;-69
2021/12/11 14:44:27;;;;;;;28.12;11.93;;;;;;;1.78;100.00;100161.81;6720966;26;34404;-69